Time;durP1;ratioP1;P1;durP2;ratioP2;P2;SDS_P1;SDS_P2;PMS_P1;PMS_P2;Temp;Humidity;BMP_temperature;BMP_pressure;BME280_temperature;BME280_humidity;BME280_pressure;Samples;Min_cycle;Max_cycle;Signal;HPM_P1;HPM_P2
2023/09/30 00:01:58;;;;;;;6.97;3.13;;;;;;;19.59;70.31;100727.53;6203151;23;20103;-86
2023/09/30 00:04:27;;;;;;;5.50;2.85;;;;;;;19.62;70.38;100714.59;6155001;23;20024;-87
2023/09/30 00:06:54;;;;;;;4.22;2.83;;;;;;;19.64;70.36;100717.94;6129610;23;20500;-87
2023/09/30 00:09:21;;;;;;;4.28;3.00;;;;;;;19.66;70.16;100710.50;6203455;23;20095;-87
2023/09/30 00:11:48;;;;;;;4.60;3.13;;;;;;;19.65;70.32;100710.69;6179098;23;20108;-87
2023/09/30 00:14:17;;;;;;;4.38;2.95;;;;;;;19.64;70.26;100712.56;6180265;23;20028;-87
2023/09/30 00:16:44;;;;;;;5.75;3.13;;;;;;;19.64;70.34;100712.56;6179124;23;20016;-86
2023/09/30 00:19:11;;;;;;;5.35;3.60;;;;;;;19.64;70.87;100715.25;6154594;23;20032;-86
2023/09/30 00:21:38;;;;;;;6.60;3.35;;;;;;;19.62;71.12;100716.44;6178082;23;20025;-87
2023/09/30 00:24:05;;;;;;;6.00;2.83;;;;;;;19.62;71.16;100724.53;6179097;23;20027;-86
2023/09/30 00:26:32;;;;;;;4.38;3.00;;;;;;;19.62;70.52;100725.34;6179400;23;20016;-86
2023/09/30 00:28:59;;;;;;;5.13;3.03;;;;;;;19.62;70.54;100732.59;6178082;23;20030;-86
2023/09/30 00:31:26;;;;;;;7.18;2.88;;;;;;;19.62;70.39;100736.13;6178709;23;20050;-87
2023/09/30 00:33:54;;;;;;;5.25;2.90;;;;;;;19.62;70.72;100736.13;6154373;23;20009;-87
2023/09/30 00:36:21;;;;;;;4.07;2.92;;;;;;;19.59;70.82;100746.41;6153589;23;20051;-86
2023/09/30 00:38:48;;;;;;;6.38;3.72;;;;;;;19.56;70.40;100744.88;6154200;23;20066;-86
2023/09/30 00:41:15;;;;;;;9.07;3.65;;;;;;;19.56;69.37;100754.84;6180704;23;20021;-86
2023/09/30 00:43:42;;;;;;;6.70;3.28;;;;;;;19.51;69.19;100753.50;6129208;23;20028;-87
2023/09/30 00:46:21;;;;;;;4.75;3.00;;;;;;;19.55;68.79;100756.69;6154361;23;20024;-87
2023/09/30 00:48:49;;;;;;;6.03;3.63;;;;;;;19.56;69.52;100749.44;6128841;23;20187;-87
2023/09/30 00:51:16;;;;;;;6.95;3.47;;;;;;;19.51;69.97;100748.13;6153462;23;20116;-87
2023/09/30 00:53:43;;;;;;;4.95;3.50;;;;;;;19.51;70.57;100749.94;6153434;23;20012;-86
2023/09/30 00:56:10;;;;;;;5.85;3.33;;;;;;;19.53;70.06;100759.53;6178110;23;20035;-86
2023/09/30 00:58:38;;;;;;;4.63;3.00;;;;;;;19.52;68.99;100760.56;6153252;23;20024;-87
2023/09/30 01:01:05;;;;;;;7.97;3.40;;;;;;;19.53;69.05;100767.63;6154709;23;20025;-87
2023/09/30 01:03:32;;;;;;;6.60;3.70;;;;;;;19.50;69.97;100765.28;6179101;23;20021;-87
2023/09/30 01:05:59;;;;;;;5.40;2.83;;;;;;;19.52;69.78;100773.19;6154277;23;20024;-87
2023/09/30 01:08:27;;;;;;;6.22;3.17;;;;;;;19.53;69.99;100774.88;6203435;23;20032;-87
2023/09/30 01:10:55;;;;;;;6.60;2.63;;;;;;;19.48;70.38;100769.16;6154722;23;20320;-86
2023/09/30 01:13:22;;;;;;;5.72;2.50;;;;;;;19.49;70.85;100765.47;6153426;23;20078;-87
2023/09/30 01:15:48;;;;;;;5.10;2.40;;;;;;;19.49;71.46;100766.31;6153667;23;20059;-87
2023/09/30 01:18:16;;;;;;;5.07;2.40;;;;;;;19.46;71.71;100758.56;6153147;23;20019;-87
2023/09/30 01:20:43;;;;;;;5.45;2.42;;;;;;;19.46;71.99;100761.25;6203488;23;20131;-86
2023/09/30 01:23:11;;;;;;;3.35;2.33;;;;;;;19.46;72.24;100757.72;6204111;23;20107;-87
2023/09/30 01:25:39;;;;;;;8.27;2.53;;;;;;;19.45;72.39;100756.03;6178720;23;20028;-86
2023/09/30 01:28:10;;;;;;;2.88;1.80;;;;;;;19.45;72.63;100759.56;6154775;23;20020;-88
2023/09/30 01:30:36;;;;;;;6.63;2.15;;;;;;;19.43;72.41;100753.50;6152470;23;20016;-87
2023/09/30 01:33:03;;;;;;;6.57;2.83;;;;;;;19.45;72.70;100753.34;6128778;23;20318;-86
2023/09/30 01:35:30;;;;;;;7.95;2.50;;;;;;;19.40;72.96;100756.53;6178189;23;20043;-87
2023/09/30 01:37:57;;;;;;;5.88;2.22;;;;;;;19.44;72.79;100759.75;6130818;23;20080;-87
2023/09/30 01:40:24;;;;;;;4.03;2.20;;;;;;;19.42;72.57;100753.69;6180091;23;20024;-86
2023/09/30 01:42:51;;;;;;;4.35;2.08;;;;;;;19.40;73.23;100751.16;6177996;23;20025;-87
2023/09/30 01:45:17;;;;;;;3.55;2.17;;;;;;;19.41;73.44;100754.69;6154121;23;20048;-87
2023/09/30 01:47:44;;;;;;;4.47;2.13;;;;;;;19.40;73.13;100761.09;6177009;23;20709;-86
2023/09/30 01:50:11;;;;;;;4.18;2.50;;;;;;;19.41;73.34;100760.06;6154524;23;20044;-86
2023/09/30 01:52:38;;;;;;;4.45;2.42;;;;;;;19.39;73.63;100768.34;6178255;23;20100;-86
2023/09/30 01:55:06;;;;;;;5.22;2.28;;;;;;;19.39;73.26;100762.97;6153796;23;20091;-86
2023/09/30 01:57:33;;;;;;;5.32;2.55;;;;;;;19.39;73.25;100770.19;6154564;23;20023;-87
2023/09/30 02:00:00;;;;;;;7.38;2.30;;;;;;;19.37;72.79;100773.06;6153681;23;20026;-87
2023/09/30 02:02:28;;;;;;;3.35;2.03;;;;;;;19.37;72.91;100762.28;6203436;23;20027;-87
2023/09/30 02:04:54;;;;;;;4.25;2.50;;;;;;;19.36;73.30;100767.81;6177734;23;20091;-87
2023/09/30 02:07:21;;;;;;;6.00;2.50;;;;;;;19.35;73.19;100771.53;6155114;23;20120;-87
2023/09/30 02:09:48;;;;;;;5.30;2.30;;;;;;;19.36;73.29;100776.78;6181092;23;20021;-87
2023/09/30 02:12:15;;;;;;;5.80;2.58;;;;;;;19.31;73.42;100773.75;6155767;23;20356;-87
2023/09/30 02:14:46;;;;;;;5.25;2.22;;;;;;;19.33;73.46;100787.84;6155857;23;20047;-87
2023/09/30 02:17:13;;;;;;;4.28;2.53;;;;;;;19.35;73.36;100791.22;6156650;23;20021;-86
2023/09/30 02:19:40;;;;;;;4.90;2.80;;;;;;;19.29;73.45;100781.97;6155988;23;20047;-86
2023/09/30 02:22:07;;;;;;;4.78;2.85;;;;;;;19.30;73.12;100785.50;6180960;23;20075;-87
2023/09/30 02:24:34;;;;;;;4.18;2.45;;;;;;;19.30;73.49;100793.59;6180921;23;22460;-87
2023/09/30 02:27:01;;;;;;;8.35;2.75;;;;;;;19.27;73.84;100781.31;6156922;23;20727;-87
2023/09/30 02:29:28;;;;;;;5.18;2.60;;;;;;;19.30;73.73;100783.66;6154826;23;20020;-87
2023/09/30 02:31:55;;;;;;;4.03;2.42;;;;;;;19.29;73.67;100784.69;6205352;23;20556;-86
2023/09/30 02:34:22;;;;;;;6.75;2.45;;;;;;;19.30;73.71;100788.19;6180681;23;20075;-86
2023/09/30 02:36:49;;;;;;;8.23;2.80;;;;;;;19.28;73.84;100779.44;6155813;23;20020;-86
2023/09/30 02:39:16;;;;;;;5.38;2.60;;;;;;;19.29;73.76;100789.22;6180811;23;20024;-87
2023/09/30 02:41:43;;;;;;;6.80;2.67;;;;;;;19.26;73.79;100790.41;6130845;23;20020;-86
2023/09/30 02:44:10;;;;;;;4.47;2.45;;;;;;;19.27;73.89;100797.47;6180330;23;20357;-87
2023/09/30 02:46:37;;;;;;;6.22;2.50;;;;;;;19.27;73.86;100805.53;6204553;23;20103;-86
2023/09/30 02:49:05;;;;;;;5.80;2.60;;;;;;;19.26;73.46;100798.47;6179792;23;20025;-87
2023/09/30 02:51:32;;;;;;;5.88;2.67;;;;;;;19.22;73.78;100791.75;6180169;23;20021;-87
2023/09/30 02:53:59;;;;;;;4.32;2.45;;;;;;;19.24;73.64;100799.66;6153808;23;20020;-87
2023/09/30 02:56:28;;;;;;;6.15;3.25;;;;;;;19.25;73.43;100794.09;6180515;23;20035;-86
2023/09/30 02:58:55;;;;;;;5.85;2.60;;;;;;;19.23;73.63;100796.13;6203202;23;20072;-86
2023/09/30 03:01:22;;;;;;;6.80;2.58;;;;;;;19.20;73.60;100793.75;6155747;23;20087;-86
2023/09/30 03:03:49;;;;;;;5.38;2.63;;;;;;;19.16;73.62;100787.03;6179540;23;20044;-86
2023/09/30 03:06:18;;;;;;;6.20;3.08;;;;;;;19.15;73.23;100796.09;6204053;23;20055;-86
2023/09/30 03:08:46;;;;;;;5.93;2.28;;;;;;;19.21;72.90;100805.34;6154161;23;20024;-87
2023/09/30 03:11:13;;;;;;;4.43;2.67;;;;;;;19.17;73.36;100807.56;6155550;23;20017;-86
2023/09/30 03:13:42;;;;;;;4.88;2.60;;;;;;;19.17;72.93;100804.03;6154639;23;20043;-87
2023/09/30 03:16:09;;;;;;;5.20;2.67;;;;;;;19.19;73.22;100805.53;6154491;23;20143;-87
2023/09/30 03:18:36;;;;;;;9.57;2.67;;;;;;;19.20;73.51;100807.22;6179862;23;20416;-87
2023/09/30 03:21:13;;;;;;;7.82;2.90;;;;;;;19.11;73.92;100823.53;6155733;23;20449;-87
2023/09/30 03:23:40;;;;;;;4.63;2.40;;;;;;;19.18;73.60;100825.38;6178658;23;20051;-86
2023/09/30 03:26:10;;;;;;;4.75;2.28;;;;;;;19.19;73.53;100820.88;6155924;23;20043;-87
2023/09/30 03:28:38;;;;;;;5.63;2.63;;;;;;;19.17;73.36;100817.50;6155762;23;20508;-86
2023/09/30 03:31:05;;;;;;;4.22;2.67;;;;;;;19.16;73.59;100816.66;6155019;23;20100;-86
2023/09/30 03:33:32;;;;;;;6.53;2.28;;;;;;;19.17;73.27;100804.88;6203368;23;20017;-87
2023/09/30 03:35:59;;;;;;;5.93;2.70;;;;;;;19.15;73.34;100814.13;6153735;23;20025;-87
2023/09/30 03:38:26;;;;;;;4.47;2.55;;;;;;;19.17;73.22;100806.72;6155110;23;20028;-86
2023/09/30 03:40:54;;;;;;;6.60;2.38;;;;;;;19.15;73.64;100803.34;6155043;23;20020;-86
2023/09/30 03:43:22;;;;;;;7.82;2.75;;;;;;;19.12;73.47;100799.16;6154059;23;20020;-86
2023/09/30 03:45:50;;;;;;;7.35;2.97;;;;;;;19.15;73.39;100812.25;6179169;23;20022;-86
2023/09/30 03:48:18;;;;;;;6.55;2.90;;;;;;;19.11;73.65;100807.38;6126142;23;20059;-86
2023/09/30 03:50:45;;;;;;;6.50;2.78;;;;;;;19.12;73.41;100809.91;6153674;23;20021;-86
2023/09/30 03:53:12;;;;;;;6.50;2.83;;;;;;;19.10;73.70;100814.63;6179316;23;20021;-86
2023/09/30 03:55:40;;;;;;;5.47;2.70;;;;;;;19.07;73.37;100805.03;6178857;23;20022;-86
2023/09/30 03:58:07;;;;;;;5.93;2.97;;;;;;;19.12;73.64;100806.38;6178547;23;20025;-86
2023/09/30 04:00:35;;;;;;;7.60;2.83;;;;;;;19.09;73.63;100812.94;6154410;23;21531;-86
2023/09/30 04:03:02;;;;;;;11.00;2.78;;;;;;;19.10;73.36;100822.69;6153858;23;20477;-87
2023/09/30 04:05:31;;;;;;;6.75;3.55;;;;;;;19.09;73.40;100831.78;6153778;23;20028;-86
2023/09/30 04:07:58;;;;;;;7.13;3.10;;;;;;;19.06;73.64;100821.38;6153544;23;20396;-86
2023/09/30 04:10:25;;;;;;;6.75;3.10;;;;;;;19.04;73.66;100824.22;6179181;23;20024;-86
2023/09/30 04:12:52;;;;;;;7.03;3.20;;;;;;;19.03;73.34;100818.97;6179118;23;20520;-86
2023/09/30 04:15:19;;;;;;;7.75;2.50;;;;;;;18.98;73.57;100821.31;6178933;23;20051;-87
2023/09/30 04:17:48;;;;;;;7.00;2.85;;;;;;;18.94;74.02;100825.38;6153610;23;20035;-86
2023/09/30 04:20:21;;;;;;;7.47;2.70;;;;;;;18.91;74.18;100823.03;6178338;23;20020;-87
2023/09/30 04:22:49;;;;;;;4.60;2.83;;;;;;;18.94;74.57;100822.69;6154681;23;20083;-87
2023/09/30 04:25:17;;;;;;;6.70;2.65;;;;;;;18.89;74.62;100831.25;6202926;23;20097;-87
2023/09/30 04:27:47;;;;;;;4.45;2.40;;;;;;;18.87;74.99;100839.47;6154168;23;20031;-87
2023/09/30 04:30:19;;;;;;;7.97;2.53;;;;;;;18.81;74.94;100837.47;6155897;23;20082;-86
2023/09/30 04:32:46;;;;;;;6.82;2.97;;;;;;;18.80;74.85;100833.09;6178174;23;20017;-87
2023/09/30 04:35:13;;;;;;;5.60;2.78;;;;;;;18.74;75.15;100822.94;6153313;23;20040;-86
2023/09/30 04:37:40;;;;;;;5.47;2.90;;;;;;;18.69;75.29;100827.13;6154287;23;20083;-85
2023/09/30 04:40:19;;;;;;;8.07;3.38;;;;;;;18.72;74.88;100834.88;6154338;23;20074;-85
2023/09/30 04:42:47;;;;;;;5.13;2.45;;;;;;;18.68;75.07;100839.75;6202105;23;20115;-86
2023/09/30 04:45:19;;;;;;;4.97;2.50;;;;;;;18.66;75.02;100847.16;6177885;23;20039;-86
2023/09/30 04:47:49;;;;;;;7.60;3.00;;;;;;;18.63;74.99;100844.78;6179552;23;20021;-86
2023/09/30 04:50:16;;;;;;;4.47;2.53;;;;;;;18.60;74.80;100837.88;6179931;23;20083;-86
2023/09/30 04:52:45;;;;;;;6.47;2.75;;;;;;;18.56;74.85;100841.91;6178933;23;20021;-86
2023/09/30 04:55:12;;;;;;;5.65;2.78;;;;;;;18.54;74.77;100837.69;6180009;23;20020;-86
2023/09/30 04:57:39;;;;;;;7.85;2.75;;;;;;;18.52;74.45;100839.69;6203523;23;20046;-86
2023/09/30 05:00:11;;;;;;;5.45;2.70;;;;;;;18.50;74.38;100839.03;6154833;23;20020;-86
2023/09/30 05:02:38;;;;;;;8.15;3.30;;;;;;;18.40;74.55;100840.00;6177716;23;20456;-86
2023/09/30 05:05:08;;;;;;;5.30;3.15;;;;;;;18.41;74.60;100838.97;6153635;23;20024;-86
2023/09/30 05:07:35;;;;;;;8.10;2.80;;;;;;;18.39;74.77;100853.59;6178048;23;20024;-87
2023/09/30 05:10:10;;;;;;;4.82;2.80;;;;;;;18.32;74.38;100847.16;6203517;23;20020;-87
2023/09/30 05:12:37;;;;;;;6.97;2.65;;;;;;;18.33;74.54;100857.78;6155520;23;20044;-87
2023/09/30 05:15:06;;;;;;;10.35;2.72;;;;;;;18.31;74.57;100859.78;6153018;23;20460;-86
2023/09/30 05:17:32;;;;;;;8.68;2.83;;;;;;;18.26;74.61;100853.22;6154013;23;20479;-86
2023/09/30 05:19:59;;;;;;;5.97;3.17;;;;;;;18.23;74.59;100852.50;6204459;23;20775;-86
2023/09/30 05:22:26;;;;;;;9.80;3.22;;;;;;;18.23;74.52;100857.06;6153650;23;20055;-86
2023/09/30 05:24:54;;;;;;;8.75;3.08;;;;;;;18.26;74.68;100853.22;6152593;23;20017;-86
2023/09/30 05:27:21;;;;;;;8.18;3.00;;;;;;;18.25;74.94;100847.00;6154235;23;20016;-86
2023/09/30 05:29:48;;;;;;;6.15;3.17;;;;;;;18.21;74.79;100853.69;6178947;23;20031;-86
2023/09/30 05:32:15;;;;;;;5.32;3.05;;;;;;;18.15;74.96;100860.53;6178694;23;20024;-86
2023/09/30 05:34:43;;;;;;;6.32;3.50;;;;;;;18.14;75.15;100853.50;6178637;23;20084;-86
2023/09/30 05:37:12;;;;;;;5.97;2.72;;;;;;;18.15;74.97;100857.84;6178133;23;20091;-86
2023/09/30 05:39:38;;;;;;;6.22;2.95;;;;;;;18.11;75.12;100863.72;6154386;23;20035;-86
2023/09/30 05:42:06;;;;;;;8.73;3.38;;;;;;;18.09;75.02;100876.47;6179660;23;20021;-85
2023/09/30 05:44:33;;;;;;;8.57;3.08;;;;;;;18.06;75.60;100883.00;6179482;23;20069;-86
2023/09/30 05:47:00;;;;;;;6.70;2.78;;;;;;;18.02;75.42;100891.56;6154963;23;20020;-85
2023/09/30 05:49:27;;;;;;;5.05;3.08;;;;;;;18.02;75.13;100881.66;6155919;23;20016;-86
2023/09/30 05:51:55;;;;;;;5.60;2.58;;;;;;;18.01;75.50;100893.38;6178518;23;20087;-86
2023/09/30 05:54:22;;;;;;;7.32;2.78;;;;;;;18.02;75.57;100910.38;6181164;23;20021;-87
2023/09/30 05:56:49;;;;;;;7.20;3.20;;;;;;;18.00;75.64;100897.91;6155568;23;20021;-87
2023/09/30 05:59:16;;;;;;;6.32;3.08;;;;;;;18.04;75.98;100898.47;6180002;23;20024;-86
2023/09/30 06:01:43;;;;;;;6.60;3.17;;;;;;;18.03;76.29;100903.97;6155399;23;20020;-86
2023/09/30 06:04:10;;;;;;;8.95;3.05;;;;;;;18.05;75.80;100913.56;6180945;23;20043;-86
2023/09/30 06:06:38;;;;;;;7.28;3.50;;;;;;;18.09;75.84;100908.72;6179821;23;20016;-86
2023/09/30 06:09:07;;;;;;;5.60;3.47;;;;;;;18.11;76.08;100907.56;6204467;23;20083;-87
2023/09/30 06:11:35;;;;;;;6.95;3.30;;;;;;;18.14;76.13;100909.09;6153580;23;20051;-86
2023/09/30 06:14:06;;;;;;;6.60;3.08;;;;;;;18.16;76.20;100912.47;6156670;23;20047;-86
2023/09/30 06:16:34;;;;;;;5.72;3.30;;;;;;;18.15;75.83;100916.16;6156005;23;20408;-86
2023/09/30 06:19:02;;;;;;;4.65;3.45;;;;;;;18.17;75.80;100912.31;6180698;23;20016;-87
2023/09/30 06:21:29;;;;;;;6.25;3.38;;;;;;;18.18;75.91;100899.72;6156437;23;20024;-86
2023/09/30 06:23:56;;;;;;;6.82;3.88;;;;;;;18.19;76.28;100899.56;6204904;23;20103;-86
2023/09/30 06:26:24;;;;;;;8.40;4.38;;;;;;;18.22;75.97;100901.94;6181102;23;20020;-86
2023/09/30 06:28:54;;;;;;;8.15;4.82;;;;;;;18.25;75.89;100908.81;6179600;23;20773;-86
2023/09/30 06:31:21;;;;;;;9.43;3.60;;;;;;;18.28;76.10;100908.50;6180301;23;20024;-87
2023/09/30 06:33:48;;;;;;;11.98;3.72;;;;;;;18.28;75.90;100910.34;6180399;23;20027;-86
2023/09/30 06:36:15;;;;;;;5.68;4.22;;;;;;;18.31;76.00;100910.88;6155009;23;20024;-86
2023/09/30 06:38:43;;;;;;;7.80;3.90;;;;;;;18.30;75.60;100928.00;6154456;23;20020;-86
2023/09/30 06:41:15;;;;;;;9.38;4.03;;;;;;;18.30;75.89;100921.81;6180032;23;20029;-87
2023/09/30 06:43:42;;;;;;;8.68;3.85;;;;;;;18.32;76.17;100923.31;6178608;23;20444;-86
2023/09/30 06:46:10;;;;;;;8.27;4.07;;;;;;;18.36;76.23;100913.91;6180001;23;20044;-86
2023/09/30 06:48:37;;;;;;;7.55;4.15;;;;;;;18.38;75.95;100911.09;6129781;23;20446;-86
2023/09/30 06:51:04;;;;;;;8.40;4.15;;;;;;;18.36;75.94;100908.53;6180688;23;20078;-85
2023/09/30 06:53:31;;;;;;;8.50;4.15;;;;;;;18.37;75.93;100910.25;6154136;23;20540;-86
2023/09/30 06:55:58;;;;;;;11.90;4.28;;;;;;;18.37;75.79;100912.09;6154946;23;20020;-85
2023/09/30 06:58:25;;;;;;;5.60;3.97;;;;;;;18.42;75.81;100929.44;6180658;23;20044;-86
2023/09/30 07:00:53;;;;;;;7.03;4.13;;;;;;;18.45;76.02;100928.28;6179958;23;20020;-86
2023/09/30 07:03:20;;;;;;;9.35;4.82;;;;;;;18.48;76.06;100929.78;6155054;23;20020;-86
2023/09/30 07:05:54;;;;;;;11.40;4.10;;;;;;;18.46;75.87;100940.69;6181108;23;20028;-86
2023/09/30 07:08:21;;;;;;;7.47;4.05;;;;;;;18.51;75.80;100950.97;6202824;23;20013;-86
2023/09/30 07:10:52;;;;;;;8.55;3.95;;;;;;;18.52;75.77;100940.06;6154006;23;20507;-86
2023/09/30 07:13:20;;;;;;;7.70;4.43;;;;;;;18.49;76.06;100950.28;6157411;23;20082;-86
2023/09/30 07:15:47;;;;;;;6.90;4.25;;;;;;;18.51;75.94;100953.69;6154943;23;20357;-85
2023/09/30 07:18:14;;;;;;;7.82;4.72;;;;;;;18.52;75.89;100947.28;6154014;23;20084;-85
2023/09/30 07:20:42;;;;;;;8.27;4.30;;;;;;;18.56;75.67;100941.44;6178206;23;20028;-85
2023/09/30 07:23:09;;;;;;;11.18;4.78;;;;;;;18.55;76.07;100945.13;6179259;23;20020;-86
2023/09/30 07:25:46;;;;;;;8.32;4.22;;;;;;;18.57;76.11;100948.50;6156137;23;20027;-85
2023/09/30 07:28:13;;;;;;;8.60;4.40;;;;;;;18.59;75.98;100951.03;6179025;23;20017;-85
2023/09/30 07:30:40;;;;;;;7.35;4.47;;;;;;;18.58;75.92;100955.56;6154651;23;20036;-85
2023/09/30 07:33:07;;;;;;;6.05;4.38;;;;;;;18.62;75.77;100961.44;6154919;23;20440;-84
2023/09/30 07:35:34;;;;;;;10.52;4.40;;;;;;;18.67;76.07;100956.44;6155191;23;20067;-86
2023/09/30 07:38:04;;;;;;;10.43;4.57;;;;;;;18.68;75.81;100960.00;6154724;23;20024;-85
2023/09/30 07:40:30;;;;;;;9.15;4.28;;;;;;;18.68;75.96;100970.75;6155152;23;20051;-86
2023/09/30 07:42:57;;;;;;;8.73;3.90;;;;;;;18.69;75.63;100984.03;6178014;23;20040;-86
2023/09/30 07:45:24;;;;;;;10.75;4.38;;;;;;;18.74;74.79;100975.47;6179466;23;20021;-86
2023/09/30 07:47:51;;;;;;;8.93;4.57;;;;;;;18.72;74.78;100986.38;6153672;23;20043;-88
2023/09/30 07:50:19;;;;;;;10.18;4.40;;;;;;;18.74;74.35;100957.47;6204493;23;20027;-86
2023/09/30 07:52:46;;;;;;;10.85;4.40;;;;;;;18.74;74.48;100957.47;6205139;23;20025;-86
2023/09/30 07:55:13;;;;;;;6.78;3.70;;;;;;;18.79;74.34;100957.88;6156130;23;20012;-86
2023/09/30 07:57:42;;;;;;;9.98;4.35;;;;;;;18.83;74.74;100953.88;6179516;23;20103;-86
2023/09/30 08:00:14;;;;;;;8.63;4.25;;;;;;;18.87;74.15;100965.97;6205538;23;20020;-86
2023/09/30 08:02:42;;;;;;;6.13;3.60;;;;;;;18.86;73.50;100966.16;6179783;23;20035;-85
2023/09/30 08:05:09;;;;;;;8.45;3.75;;;;;;;18.86;73.63;100958.91;6177378;23;20463;-84
2023/09/30 08:07:37;;;;;;;9.57;4.22;;;;;;;18.89;73.23;100970.38;6154402;23;20020;-85
2023/09/30 08:10:05;;;;;;;8.48;3.70;;;;;;;18.88;72.69;100966.84;6177749;23;20032;-84
2023/09/30 08:12:33;;;;;;;8.15;4.15;;;;;;;18.89;72.67;100973.06;6204351;23;20028;-84
2023/09/30 08:15:00;;;;;;;6.57;3.33;;;;;;;18.91;72.51;100977.28;6202720;23;20044;-85
2023/09/30 08:17:26;;;;;;;11.07;4.05;;;;;;;18.89;72.41;100956.91;6178597;23;20082;-84
2023/09/30 08:19:53;;;;;;;12.38;4.20;;;;;;;18.92;72.20;100956.56;6153786;23;20055;-85
2023/09/30 08:22:21;;;;;;;8.82;4.18;;;;;;;18.95;72.38;100957.09;6178486;23;20028;-84
2023/09/30 08:24:47;;;;;;;8.68;3.42;;;;;;;18.97;72.14;100946.16;6153826;23;20083;-84
2023/09/30 08:27:15;;;;;;;12.05;4.63;;;;;;;19.02;72.07;100949.22;6154408;23;20020;-84
2023/09/30 08:29:42;;;;;;;9.43;3.30;;;;;;;19.04;71.85;100950.72;6153295;23;20023;-84
2023/09/30 08:32:09;;;;;;;7.93;4.25;;;;;;;19.08;72.12;100960.19;6204088;23;20629;-85
2023/09/30 08:34:36;;;;;;;8.32;3.78;;;;;;;19.08;71.72;100957.47;6154328;23;20032;-84
2023/09/30 08:37:03;;;;;;;8.15;3.90;;;;;;;19.07;71.57;100960.31;6203423;23;20016;-84
2023/09/30 08:39:30;;;;;;;9.40;4.05;;;;;;;19.12;71.48;100971.44;6155247;23;20028;-85
2023/09/30 08:41:57;;;;;;;7.80;3.83;;;;;;;19.12;71.79;100965.22;6128846;23;20051;-84
2023/09/30 08:44:25;;;;;;;8.88;3.92;;;;;;;19.15;71.59;100968.41;6202681;23;20031;-85
2023/09/30 08:46:54;;;;;;;9.32;3.90;;;;;;;19.18;71.12;100959.19;6178085;23;20013;-85
2023/09/30 08:49:21;;;;;;;8.43;3.83;;;;;;;19.19;71.36;100955.50;6153487;23;20029;-84
2023/09/30 08:51:49;;;;;;;10.13;3.75;;;;;;;19.25;71.35;100962.91;6202702;23;20396;-85
2023/09/30 08:54:16;;;;;;;7.22;3.55;;;;;;;19.26;71.40;100973.53;6152508;23;20020;-84
2023/09/30 08:56:48;;;;;;;8.90;4.07;;;;;;;19.26;70.75;100972.69;6153583;23;20036;-85
2023/09/30 08:59:15;;;;;;;7.82;4.05;;;;;;;19.30;71.18;100968.63;6178926;23;20103;-85
2023/09/30 09:01:42;;;;;;;9.23;4.05;;;;;;;19.30;70.74;100965.94;6177648;23;20044;-85
2023/09/30 09:04:09;;;;;;;9.20;4.00;;;;;;;19.33;70.85;100959.38;6177826;23;20449;-85
2023/09/30 09:06:36;;;;;;;8.35;3.65;;;;;;;19.34;70.25;100970.00;6153629;23;20024;-85
2023/09/30 09:09:16;;;;;;;7.25;4.07;;;;;;;19.31;69.84;100967.66;6178232;23;20028;-85
2023/09/30 09:11:46;;;;;;;10.73;3.88;;;;;;;19.37;70.23;100966.97;6177171;23;20086;-84
2023/09/30 09:14:14;;;;;;;10.50;4.05;;;;;;;19.39;69.81;100958.75;6179197;23;20028;-85
2023/09/30 09:16:54;;;;;;;6.15;3.75;;;;;;;19.38;69.38;100970.50;6178126;23;20349;-85
2023/09/30 09:19:22;;;;;;;7.53;3.63;;;;;;;19.43;69.89;100966.28;6154428;23;20814;-84
2023/09/30 09:21:59;;;;;;;9.35;4.10;;;;;;;19.42;69.16;100953.84;6177104;23;20016;-84
2023/09/30 09:24:42;;;;;;;7.28;3.80;;;;;;;19.45;68.98;100963.44;6202565;23;20044;-85
2023/09/30 09:27:16;;;;;;;7.13;3.92;;;;;;;19.53;69.10;100966.16;6178633;23;20032;-85
2023/09/30 09:29:44;;;;;;;9.80;3.90;;;;;;;19.56;68.21;100965.81;6177111;23;20850;-84
2023/09/30 09:32:16;;;;;;;8.07;3.78;;;;;;;19.43;65.87;100969.00;6152711;23;20132;-84
2023/09/30 09:34:44;;;;;;;9.73;4.18;;;;;;;19.46;67.11;100962.44;6152819;23;20382;-85
2023/09/30 09:37:19;;;;;;;9.02;4.18;;;;;;;19.43;66.74;100963.59;6201699;23;20021;-84
2023/09/30 09:39:50;;;;;;;9.05;3.10;;;;;;;19.44;67.36;100957.22;6178292;23;20079;-84
2023/09/30 09:42:34;;;;;;;8.52;3.67;;;;;;;19.28;64.53;100939.19;6152534;23;20673;-85
2023/09/30 09:45:05;;;;;;;9.95;3.90;;;;;;;19.40;65.95;100960.41;6172682;23;20031;-85
2023/09/30 09:47:32;;;;;;;8.13;3.20;;;;;;;19.41;66.09;100959.38;6178529;23;20100;-85
2023/09/30 09:50:00;;;;;;;10.02;3.42;;;;;;;19.42;66.44;100966.47;6153242;23;20028;-85
2023/09/30 09:52:27;;;;;;;10.43;3.50;;;;;;;19.43;66.53;100963.59;6154231;23;20095;-85
2023/09/30 09:54:54;;;;;;;7.40;3.42;;;;;;;19.46;66.39;100954.34;6201533;23;20083;-85
2023/09/30 09:57:22;;;;;;;8.48;4.32;;;;;;;19.51;66.38;100954.69;6129096;23;20404;-85
2023/09/30 09:59:49;;;;;;;7.30;3.42;;;;;;;19.53;65.72;100958.91;6178479;23;20048;-85
2023/09/30 10:02:17;;;;;;;8.20;3.92;;;;;;;19.60;66.05;100952.88;6152798;23;20017;-85
2023/09/30 10:04:45;;;;;;;8.98;3.85;;;;;;;19.66;66.27;100952.19;6152470;23;20032;-85
2023/09/30 10:07:19;;;;;;;6.95;3.63;;;;;;;19.73;65.86;100954.06;6203212;23;20352;-85
2023/09/30 10:09:50;;;;;;;8.55;4.50;;;;;;;19.79;65.75;100955.25;6152980;23;20024;-86
2023/09/30 10:12:18;;;;;;;11.30;5.10;;;;;;;19.83;65.59;100953.06;6178802;23;20044;-86
2023/09/30 10:14:45;;;;;;;10.02;4.45;;;;;;;19.82;64.93;100949.53;6178091;23;20079;-85
2023/09/30 10:17:12;;;;;;;6.80;3.92;;;;;;;19.82;64.92;100949.53;6153303;23;20035;-85
2023/09/30 10:20:06;;;;;;;10.02;3.75;;;;;;;19.78;63.39;100955.44;6177910;23;20091;-84
2023/09/30 10:22:33;;;;;;;6.30;3.65;;;;;;;19.86;64.56;100953.56;6178119;23;20449;-86
2023/09/30 10:25:00;;;;;;;11.13;3.55;;;;;;;19.90;64.41;100957.63;6203584;23;20025;-86
2023/09/30 10:27:31;;;;;;;7.20;3.13;;;;;;;19.91;64.23;100953.91;6201587;23;20024;-86
2023/09/30 10:30:08;;;;;;;9.98;3.63;;;;;;;19.88;63.51;100940.75;6202802;23;20024;-85
2023/09/30 10:32:50;;;;;;;5.82;3.00;;;;;;;19.79;62.34;100938.22;6205314;23;20471;-85
2023/09/30 10:35:18;;;;;;;8.50;3.35;;;;;;;19.86;63.21;100940.09;6155081;23;20326;-85
2023/09/30 10:37:45;;;;;;;9.70;4.00;;;;;;;19.86;62.56;100932.00;6178322;23;20016;-86
2023/09/30 10:40:29;;;;;;;8.52;3.78;;;;;;;19.83;61.75;100928.81;6155300;23;20028;-85
2023/09/30 10:42:56;;;;;;;6.38;3.30;;;;;;;19.91;62.70;100924.25;6203332;23;20020;-85
2023/09/30 10:45:44;;;;;;;8.45;3.85;;;;;;;19.85;60.77;100919.53;6154178;23;20048;-85
2023/09/30 10:48:40;;;;;;;8.95;3.50;;;;;;;19.80;60.37;100921.91;6178328;23;20459;-85
2023/09/30 10:51:11;;;;;;;9.15;4.20;;;;;;;19.87;61.19;100911.28;6154010;23;20017;-86
2023/09/30 10:53:43;;;;;;;8.43;3.80;;;;;;;19.88;60.36;100899.50;6179650;23;20027;-86
2023/09/30 10:56:10;;;;;;;12.95;3.97;;;;;;;19.92;60.84;100903.50;6178575;23;20485;-86
2023/09/30 10:58:41;;;;;;;9.88;3.90;;;;;;;19.87;59.54;100895.09;6155487;23;20093;-86
2023/09/30 11:01:08;;;;;;;7.18;3.45;;;;;;;19.83;58.96;100896.47;6204089;23;20403;-86
2023/09/30 11:03:36;;;;;;;11.07;3.85;;;;;;;19.82;59.71;100892.06;6153936;23;20013;-86
2023/09/30 11:06:03;;;;;;;8.77;3.40;;;;;;;19.80;59.91;100899.50;6154115;23;20102;-86
2023/09/30 11:08:41;;;;;;;9.00;3.42;;;;;;;19.80;60.03;100907.59;6182185;23;20033;-87
2023/09/30 11:11:08;;;;;;;7.97;4.07;;;;;;;19.84;59.70;100906.22;6178948;23;20023;-86
2023/09/30 11:13:35;;;;;;;8.50;4.05;;;;;;;19.88;57.63;100904.88;6155122;23;20024;-86
2023/09/30 11:16:08;;;;;;;11.82;4.18;;;;;;;19.80;58.19;100902.22;6154221;23;20016;-88
2023/09/30 11:18:38;;;;;;;11.07;4.38;;;;;;;19.85;58.69;100905.22;6203783;23;20056;-86
2023/09/30 11:21:10;;;;;;;8.68;4.25;;;;;;;19.86;58.24;100896.13;6179079;23;20046;-86
2023/09/30 11:23:37;;;;;;;9.20;4.30;;;;;;;19.88;59.02;100911.09;6179963;23;20463;-86
2023/09/30 11:26:05;;;;;;;12.77;4.85;;;;;;;19.93;57.98;100902.53;6178494;23;20020;-86
2023/09/30 11:28:41;;;;;;;11.02;4.70;;;;;;;19.87;56.21;100905.88;6203452;23;20070;-85
2023/09/30 11:31:11;;;;;;;9.65;4.35;;;;;;;19.94;57.94;100907.72;6129857;23;20456;-86